sensor_id;sensor_type;location;lat;lon;timestamp;P1;durP1;ratioP1;P2;durP2;ratioP2
72109;SDS011;59983;52.010;5.420;2023-02-01T00:00:26;13.70;;;7.75;;
72109;SDS011;59983;52.010;5.420;2023-02-01T00:02:52;12.50;;;7.43;;
72109;SDS011;59983;52.010;5.420;2023-02-01T00:05:19;9.77;;;7.57;;
72109;SDS011;59983;52.010;5.420;2023-02-01T00:07:48;13.45;;;7.05;;
72109;SDS011;59983;52.010;5.420;2023-02-01T00:10:15;15.07;;;6.97;;
72109;SDS011;59983;52.010;5.420;2023-02-01T00:12:42;14.13;;;8.38;;
72109;SDS011;59983;52.010;5.420;2023-02-01T00:15:09;14.50;;;7.03;;
72109;SDS011;59983;52.010;5.420;2023-02-01T00:17:35;10.93;;;7.47;;
72109;SDS011;59983;52.010;5.420;2023-02-01T00:20:02;14.10;;;7.18;;
72109;SDS011;59983;52.010;5.420;2023-02-01T00:22:29;14.95;;;8.40;;
72109;SDS011;59983;52.010;5.420;2023-02-01T00:24:55;17.15;;;8.20;;
72109;SDS011;59983;52.010;5.420;2023-02-01T00:27:22;16.03;;;8.00;;
72109;SDS011;59983;52.010;5.420;2023-02-01T00:29:48;12.77;;;8.18;;
72109;SDS011;59983;52.010;5.420;2023-02-01T00:32:15;15.10;;;8.50;;
72109;SDS011;59983;52.010;5.420;2023-02-01T00:34:41;12.35;;;7.25;;
72109;SDS011;59983;52.010;5.420;2023-02-01T00:37:08;9.07;;;5.95;;
72109;SDS011;59983;52.010;5.420;2023-02-01T00:39:34;14.00;;;7.57;;
72109;SDS011;59983;52.010;5.420;2023-02-01T00:42:01;10.98;;;7.50;;
72109;SDS011;59983;52.010;5.420;2023-02-01T00:44:28;15.15;;;7.55;;
72109;SDS011;59983;52.010;5.420;2023-02-01T00:46:59;13.30;;;7.95;;
72109;SDS011;59983;52.010;5.420;2023-02-01T00:49:26;8.52;;;6.85;;
72109;SDS011;59983;52.010;5.420;2023-02-01T00:51:54;12.47;;;7.63;;
72109;SDS011;59983;52.010;5.420;2023-02-01T00:54:20;15.73;;;7.55;;
72109;SDS011;59983;52.010;5.420;2023-02-01T00:56:47;20.05;;;7.60;;
72109;SDS011;59983;52.010;5.420;2023-02-01T00:59:14;11.73;;;6.97;;
72109;SDS011;59983;52.010;5.420;2023-02-01T01:01:40;16.85;;;7.93;;
72109;SDS011;59983;52.010;5.420;2023-02-01T01:04:07;10.23;;;7.53;;
72109;SDS011;59983;52.010;5.420;2023-02-01T01:06:33;17.65;;;8.30;;
72109;SDS011;59983;52.010;5.420;2023-02-01T01:09:01;19.38;;;7.07;;
72109;SDS011;59983;52.010;5.420;2023-02-01T01:11:31;19.35;;;8.45;;
72109;SDS011;59983;52.010;5.420;2023-02-01T01:14:00;18.30;;;8.02;;
72109;SDS011;59983;52.010;5.420;2023-02-01T01:16:28;21.93;;;8.57;;
72109;SDS011;59983;52.010;5.420;2023-02-01T01:18:57;15.20;;;7.38;;
72109;SDS011;59983;52.010;5.420;2023-02-01T01:21:24;11.98;;;7.40;;
72109;SDS011;59983;52.010;5.420;2023-02-01T01:23:52;9.30;;;7.20;;
72109;SDS011;59983;52.010;5.420;2023-02-01T01:26:19;14.18;;;7.25;;
72109;SDS011;59983;52.010;5.420;2023-02-01T01:28:51;17.73;;;7.87;;
72109;SDS011;59983;52.010;5.420;2023-02-01T01:31:18;13.95;;;8.50;;
72109;SDS011;59983;52.010;5.420;2023-02-01T01:33:50;26.08;;;8.13;;
72109;SDS011;59983;52.010;5.420;2023-02-01T01:36:18;10.98;;;7.03;;
72109;SDS011;59983;52.010;5.420;2023-02-01T01:38:45;16.23;;;7.82;;
72109;SDS011;59983;52.010;5.420;2023-02-01T01:41:13;15.07;;;7.27;;
72109;SDS011;59983;52.010;5.420;2023-02-01T01:44:01;14.05;;;6.40;;
72109;SDS011;59983;52.010;5.420;2023-02-01T01:46:34;16.58;;;7.07;;
72109;SDS011;59983;52.010;5.420;2023-02-01T01:49:20;16.23;;;7.38;;
72109;SDS011;59983;52.010;5.420;2023-02-01T01:51:51;22.83;;;8.63;;
72109;SDS011;59983;52.010;5.420;2023-02-01T01:54:23;14.80;;;8.27;;
72109;SDS011;59983;52.010;5.420;2023-02-01T01:56:56;14.35;;;7.47;;
72109;SDS011;59983;52.010;5.420;2023-02-01T01:59:27;19.23;;;7.35;;
72109;SDS011;59983;52.010;5.420;2023-02-01T02:01:54;8.57;;;6.60;;
72109;SDS011;59983;52.010;5.420;2023-02-01T02:04:21;15.40;;;7.85;;
72109;SDS011;59983;52.010;5.420;2023-02-01T02:06:50;17.17;;;8.00;;
72109;SDS011;59983;52.010;5.420;2023-02-01T02:09:21;15.63;;;8.57;;
72109;SDS011;59983;52.010;5.420;2023-02-01T02:11:48;14.52;;;7.28;;
72109;SDS011;59983;52.010;5.420;2023-02-01T02:14:15;23.08;;;8.18;;
72109;SDS011;59983;52.010;5.420;2023-02-01T02:25:13;13.57;;;7.65;;
72109;SDS011;59983;52.010;5.420;2023-02-01T02:30:22;12.95;;;7.20;;
72109;SDS011;59983;52.010;5.420;2023-02-01T02:45:07;18.75;;;7.78;;
72109;SDS011;59983;52.010;5.420;2023-02-01T02:48:16;13.27;;;7.33;;
72109;SDS011;59983;52.010;5.420;2023-02-01T02:54:12;18.90;;;7.75;;
72109;SDS011;59983;52.010;5.420;2023-02-01T02:57:00;18.58;;;8.27;;
72109;SDS011;59983;52.010;5.420;2023-02-01T02:59:48;16.65;;;7.50;;
72109;SDS011;59983;52.010;5.420;2023-02-01T03:02:33;14.57;;;7.93;;
72109;SDS011;59983;52.010;5.420;2023-02-01T03:05:20;17.05;;;7.53;;
72109;SDS011;59983;52.010;5.420;2023-02-01T03:08:09;24.92;;;7.63;;
72109;SDS011;59983;52.010;5.420;2023-02-01T03:13:25;23.92;;;7.85;;
72109;SDS011;59983;52.010;5.420;2023-02-01T03:21:31;21.30;;;7.63;;
72109;SDS011;59983;52.010;5.420;2023-02-01T03:24:03;19.88;;;9.30;;
72109;SDS011;59983;52.010;5.420;2023-02-01T03:26:36;23.65;;;8.40;;
72109;SDS011;59983;52.010;5.420;2023-02-01T03:29:12;17.50;;;7.10;;
72109;SDS011;59983;52.010;5.420;2023-02-01T03:31:43;13.77;;;7.43;;
72109;SDS011;59983;52.010;5.420;2023-02-01T03:34:11;17.30;;;7.78;;
72109;SDS011;59983;52.010;5.420;2023-02-01T03:36:40;23.55;;;7.38;;
72109;SDS011;59983;52.010;5.420;2023-02-01T03:42:28;16.60;;;6.93;;
72109;SDS011;59983;52.010;5.420;2023-02-01T03:45:04;18.98;;;8.70;;
72109;SDS011;59983;52.010;5.420;2023-02-01T03:47:33;16.90;;;8.13;;
72109;SDS011;59983;52.010;5.420;2023-02-01T03:50:07;13.48;;;7.88;;
72109;SDS011;59983;52.010;5.420;2023-02-01T03:55:09;12.53;;;8.17;;
72109;SDS011;59983;52.010;5.420;2023-02-01T03:57:44;20.20;;;8.90;;
72109;SDS011;59983;52.010;5.420;2023-02-01T04:00:18;9.27;;;7.43;;
72109;SDS011;59983;52.010;5.420;2023-02-01T04:02:48;15.75;;;8.13;;
72109;SDS011;59983;52.010;5.420;2023-02-01T04:05:15;15.20;;;8.23;;
72109;SDS011;59983;52.010;5.420;2023-02-01T04:07:42;10.57;;;7.43;;
72109;SDS011;59983;52.010;5.420;2023-02-01T04:10:09;17.75;;;7.60;;
72109;SDS011;59983;52.010;5.420;2023-02-01T04:12:37;14.07;;;7.28;;
72109;SDS011;59983;52.010;5.420;2023-02-01T04:15:04;13.73;;;7.05;;
72109;SDS011;59983;52.010;5.420;2023-02-01T04:17:31;20.17;;;7.70;;
72109;SDS011;59983;52.010;5.420;2023-02-01T04:19:57;25.63;;;8.33;;
72109;SDS011;59983;52.010;5.420;2023-02-01T04:22:24;16.13;;;7.82;;
72109;SDS011;59983;52.010;5.420;2023-02-01T04:24:50;17.30;;;7.05;;
72109;SDS011;59983;52.010;5.420;2023-02-01T04:27:17;19.48;;;7.03;;
72109;SDS011;59983;52.010;5.420;2023-02-01T04:29:44;12.23;;;7.65;;
72109;SDS011;59983;52.010;5.420;2023-02-01T04:32:11;14.97;;;8.90;;
72109;SDS011;59983;52.010;5.420;2023-02-01T04:34:37;14.70;;;7.20;;
72109;SDS011;59983;52.010;5.420;2023-02-01T04:37:04;21.10;;;7.53;;
72109;SDS011;59983;52.010;5.420;2023-02-01T04:39:30;17.27;;;7.07;;
72109;SDS011;59983;52.010;5.420;2023-02-01T04:41:57;13.40;;;7.45;;
72109;SDS011;59983;52.010;5.420;2023-02-01T04:44:23;31.20;;;8.13;;
72109;SDS011;59983;52.010;5.420;2023-02-01T04:46:50;24.52;;;8.02;;
72109;SDS011;59983;52.010;5.420;2023-02-01T04:49:17;15.30;;;8.10;;
72109;SDS011;59983;52.010;5.420;2023-02-01T04:51:43;17.98;;;8.27;;
72109;SDS011;59983;52.010;5.420;2023-02-01T04:54:10;18.55;;;8.55;;
72109;SDS011;59983;52.010;5.420;2023-02-01T04:56:37;7.93;;;7.17;;
72109;SDS011;59983;52.010;5.420;2023-02-01T04:59:04;11.55;;;6.32;;
72109;SDS011;59983;52.010;5.420;2023-02-01T05:01:31;15.18;;;7.43;;
72109;SDS011;59983;52.010;5.420;2023-02-01T05:03:59;7.43;;;6.57;;
72109;SDS011;59983;52.010;5.420;2023-02-01T05:06:25;18.67;;;7.63;;
72109;SDS011;59983;52.010;5.420;2023-02-01T05:08:51;25.63;;;9.03;;
72109;SDS011;59983;52.010;5.420;2023-02-01T05:11:18;19.90;;;9.30;;
72109;SDS011;59983;52.010;5.420;2023-02-01T05:14:03;15.00;;;7.68;;
72109;SDS011;59983;52.010;5.420;2023-02-01T05:16:29;9.90;;;7.47;;
72109;SDS011;59983;52.010;5.420;2023-02-01T05:18:56;17.67;;;8.65;;
72109;SDS011;59983;52.010;5.420;2023-02-01T05:21:23;19.20;;;7.77;;
72109;SDS011;59983;52.010;5.420;2023-02-01T05:23:49;19.38;;;7.00;;
72109;SDS011;59983;52.010;5.420;2023-02-01T05:26:34;11.05;;;6.22;;
72109;SDS011;59983;52.010;5.420;2023-02-01T05:29:01;14.88;;;7.50;;
72109;SDS011;59983;52.010;5.420;2023-02-01T05:31:28;14.70;;;7.55;;
72109;SDS011;59983;52.010;5.420;2023-02-01T05:33:55;8.40;;;7.20;;
72109;SDS011;59983;52.010;5.420;2023-02-01T05:36:21;19.05;;;8.93;;
72109;SDS011;59983;52.010;5.420;2023-02-01T05:38:48;12.32;;;8.43;;
72109;SDS011;59983;52.010;5.420;2023-02-01T05:41:15;14.23;;;8.27;;
72109;SDS011;59983;52.010;5.420;2023-02-01T05:43:41;15.43;;;7.80;;
72109;SDS011;59983;52.010;5.420;2023-02-01T05:46:07;16.60;;;7.97;;
72109;SDS011;59983;52.010;5.420;2023-02-01T05:48:36;16.77;;;6.78;;
72109;SDS011;59983;52.010;5.420;2023-02-01T05:51:03;25.25;;;8.82;;
72109;SDS011;59983;52.010;5.420;2023-02-01T05:53:29;27.55;;;8.82;;
72109;SDS011;59983;52.010;5.420;2023-02-01T05:55:56;18.65;;;7.60;;
72109;SDS011;59983;52.010;5.420;2023-02-01T05:58:22;16.57;;;8.30;;
72109;SDS011;59983;52.010;5.420;2023-02-01T06:00:49;11.02;;;7.60;;
72109;SDS011;59983;52.010;5.420;2023-02-01T06:03:15;21.60;;;7.55;;
72109;SDS011;59983;52.010;5.420;2023-02-01T06:05:45;15.82;;;8.10;;
72109;SDS011;59983;52.010;5.420;2023-02-01T06:08:13;24.80;;;9.32;;
72109;SDS011;59983;52.010;5.420;2023-02-01T06:10:40;14.03;;;7.83;;
72109;SDS011;59983;52.010;5.420;2023-02-01T06:13:07;20.50;;;7.93;;
72109;SDS011;59983;52.010;5.420;2023-02-01T06:15:34;13.18;;;6.88;;
72109;SDS011;59983;52.010;5.420;2023-02-01T06:18:03;15.50;;;8.48;;
72109;SDS011;59983;52.010;5.420;2023-02-01T06:20:30;19.45;;;8.15;;
72109;SDS011;59983;52.010;5.420;2023-02-01T06:22:56;14.27;;;6.87;;
72109;SDS011;59983;52.010;5.420;2023-02-01T06:25:23;16.90;;;6.82;;
72109;SDS011;59983;52.010;5.420;2023-02-01T06:27:49;18.83;;;7.10;;
72109;SDS011;59983;52.010;5.420;2023-02-01T06:30:16;15.55;;;7.05;;
72109;SDS011;59983;52.010;5.420;2023-02-01T06:32:43;16.08;;;7.43;;
72109;SDS011;59983;52.010;5.420;2023-02-01T06:35:09;24.00;;;7.83;;
72109;SDS011;59983;52.010;5.420;2023-02-01T06:37:42;10.85;;;6.72;;
72109;SDS011;59983;52.010;5.420;2023-02-01T06:40:09;18.88;;;7.93;;
72109;SDS011;59983;52.010;5.420;2023-02-01T06:42:36;18.92;;;7.50;;
72109;SDS011;59983;52.010;5.420;2023-02-01T06:45:03;12.82;;;8.23;;
72109;SDS011;59983;52.010;5.420;2023-02-01T06:47:29;12.53;;;8.27;;
72109;SDS011;59983;52.010;5.420;2023-02-01T06:49:56;16.88;;;7.28;;
72109;SDS011;59983;52.010;5.420;2023-02-01T06:52:22;11.10;;;6.55;;
72109;SDS011;59983;52.010;5.420;2023-02-01T06:54:49;14.60;;;7.35;;
72109;SDS011;59983;52.010;5.420;2023-02-01T06:57:15;13.13;;;7.00;;
72109;SDS011;59983;52.010;5.420;2023-02-01T06:59:42;18.37;;;7.40;;
72109;SDS011;59983;52.010;5.420;2023-02-01T07:02:09;16.33;;;7.35;;
72109;SDS011;59983;52.010;5.420;2023-02-01T07:04:37;21.35;;;7.45;;
72109;SDS011;59983;52.010;5.420;2023-02-01T07:07:04;15.77;;;7.28;;
72109;SDS011;59983;52.010;5.420;2023-02-01T07:09:31;14.52;;;7.57;;
72109;SDS011;59983;52.010;5.420;2023-02-01T07:11:57;10.50;;;6.57;;
72109;SDS011;59983;52.010;5.420;2023-02-01T07:14:24;9.73;;;7.65;;
72109;SDS011;59983;52.010;5.420;2023-02-01T07:16:50;17.95;;;7.20;;
72109;SDS011;59983;52.010;5.420;2023-02-01T07:19:17;14.40;;;7.82;;
72109;SDS011;59983;52.010;5.420;2023-02-01T07:21:43;24.40;;;6.80;;
72109;SDS011;59983;52.010;5.420;2023-02-01T07:24:10;18.53;;;7.47;;
72109;SDS011;59983;52.010;5.420;2023-02-01T07:26:36;13.70;;;7.50;;
72109;SDS011;59983;52.010;5.420;2023-02-01T07:29:03;13.02;;;7.07;;
72109;SDS011;59983;52.010;5.420;2023-02-01T07:31:29;23.05;;;7.88;;
72109;SDS011;59983;52.010;5.420;2023-02-01T07:33:56;13.43;;;6.90;;
72109;SDS011;59983;52.010;5.420;2023-02-01T07:36:24;18.43;;;7.30;;
72109;SDS011;59983;52.010;5.420;2023-02-01T07:38:50;23.25;;;7.97;;
72109;SDS011;59983;52.010;5.420;2023-02-01T07:41:21;15.68;;;7.07;;
72109;SDS011;59983;52.010;5.420;2023-02-01T07:43:48;19.95;;;8.18;;
72109;SDS011;59983;52.010;5.420;2023-02-01T07:46:16;15.43;;;8.40;;
72109;SDS011;59983;52.010;5.420;2023-02-01T07:48:43;23.30;;;8.10;;
72109;SDS011;59983;52.010;5.420;2023-02-01T07:51:11;18.73;;;7.70;;
72109;SDS011;59983;52.010;5.420;2023-02-01T07:53:40;13.73;;;6.32;;
72109;SDS011;59983;52.010;5.420;2023-02-01T07:56:14;17.30;;;7.22;;
72109;SDS011;59983;52.010;5.420;2023-02-01T07:58:42;16.15;;;7.90;;
72109;SDS011;59983;52.010;5.420;2023-02-01T08:01:13;11.03;;;7.13;;
72109;SDS011;59983;52.010;5.420;2023-02-01T08:03:47;17.92;;;7.32;;
72109;SDS011;59983;52.010;5.420;2023-02-01T08:06:15;18.05;;;7.03;;
72109;SDS011;59983;52.010;5.420;2023-02-01T08:08:42;16.13;;;7.15;;
72109;SDS011;59983;52.010;5.420;2023-02-01T08:11:11;19.75;;;6.88;;
72109;SDS011;59983;52.010;5.420;2023-02-01T08:13:37;12.37;;;6.63;;
72109;SDS011;59983;52.010;5.420;2023-02-01T08:16:05;14.68;;;6.88;;
72109;SDS011;59983;52.010;5.420;2023-02-01T08:18:34;15.38;;;7.20;;
72109;SDS011;59983;52.010;5.420;2023-02-01T08:23:33;12.10;;;5.82;;
72109;SDS011;59983;52.010;5.420;2023-02-01T08:26:12;9.10;;;6.40;;
72109;SDS011;59983;52.010;5.420;2023-02-01T08:28:53;17.27;;;7.30;;
72109;SDS011;59983;52.010;5.420;2023-02-01T08:31:22;14.70;;;7.15;;
72109;SDS011;59983;52.010;5.420;2023-02-01T08:33:51;15.43;;;6.35;;
72109;SDS011;59983;52.010;5.420;2023-02-01T08:36:22;15.65;;;6.80;;
72109;SDS011;59983;52.010;5.420;2023-02-01T08:38:50;14.77;;;6.80;;
72109;SDS011;59983;52.010;5.420;2023-02-01T08:41:18;19.98;;;8.23;;
72109;SDS011;59983;52.010;5.420;2023-02-01T08:43:46;15.60;;;7.57;;
72109;SDS011;59983;52.010;5.420;2023-02-01T08:46:14;20.23;;;7.88;;
72109;SDS011;59983;52.010;5.420;2023-02-01T08:48:41;8.05;;;6.45;;
72109;SDS011;59983;52.010;5.420;2023-02-01T08:51:08;14.10;;;6.97;;
72109;SDS011;59983;52.010;5.420;2023-02-01T08:53:37;16.38;;;7.28;;
72109;SDS011;59983;52.010;5.420;2023-02-01T08:56:06;14.05;;;7.95;;
72109;SDS011;59983;52.010;5.420;2023-02-01T08:58:33;12.82;;;7.30;;
72109;SDS011;59983;52.010;5.420;2023-02-01T09:01:09;20.27;;;6.85;;
72109;SDS011;59983;52.010;5.420;2023-02-01T09:03:39;17.73;;;7.20;;
72109;SDS011;59983;52.010;5.420;2023-02-01T09:06:09;15.65;;;7.97;;
72109;SDS011;59983;52.010;5.420;2023-02-01T09:08:38;12.65;;;6.53;;
72109;SDS011;59983;52.010;5.420;2023-02-01T09:11:07;17.08;;;8.05;;
72109;SDS011;59983;52.010;5.420;2023-02-01T09:13:37;16.48;;;7.05;;
72109;SDS011;59983;52.010;5.420;2023-02-01T09:16:04;10.57;;;6.33;;
72109;SDS011;59983;52.010;5.420;2023-02-01T09:18:30;15.60;;;7.07;;
72109;SDS011;59983;52.010;5.420;2023-02-01T09:20:57;7.75;;;6.05;;
72109;SDS011;59983;52.010;5.420;2023-02-01T09:23:24;14.10;;;6.45;;
72109;SDS011;59983;52.010;5.420;2023-02-01T09:25:51;11.15;;;6.13;;
72109;SDS011;59983;52.010;5.420;2023-02-01T09:28:18;12.13;;;6.20;;
72109;SDS011;59983;52.010;5.420;2023-02-01T09:30:45;11.45;;;7.05;;
72109;SDS011;59983;52.010;5.420;2023-02-01T09:33:12;13.15;;;7.38;;
72109;SDS011;59983;52.010;5.420;2023-02-01T09:35:39;25.10;;;7.70;;
72109;SDS011;59983;52.010;5.420;2023-02-01T09:38:05;11.73;;;6.55;;
72109;SDS011;59983;52.010;5.420;2023-02-01T09:40:33;8.63;;;6.60;;
72109;SDS011;59983;52.010;5.420;2023-02-01T09:43:08;15.98;;;6.88;;
72109;SDS011;59983;52.010;5.420;2023-02-01T09:45:44;19.20;;;7.18;;
72109;SDS011;59983;52.010;5.420;2023-02-01T09:48:35;16.15;;;5.95;;
72109;SDS011;59983;52.010;5.420;2023-02-01T09:51:12;11.02;;;6.13;;
72109;SDS011;59983;52.010;5.420;2023-02-01T09:53:44;15.83;;;7.33;;
72109;SDS011;59983;52.010;5.420;2023-02-01T09:58:47;13.55;;;6.95;;
72109;SDS011;59983;52.010;5.420;2023-02-01T10:01:40;16.58;;;7.53;;
72109;SDS011;59983;52.010;5.420;2023-02-01T10:04:10;17.73;;;6.00;;
72109;SDS011;59983;52.010;5.420;2023-02-01T10:06:53;15.57;;;6.83;;
72109;SDS011;59983;52.010;5.420;2023-02-01T10:09:38;12.40;;;6.53;;
72109;SDS011;59983;52.010;5.420;2023-02-01T10:20:46;27.83;;;7.37;;
72109;SDS011;59983;52.010;5.420;2023-02-01T10:23:27;18.40;;;6.55;;
72109;SDS011;59983;52.010;5.420;2023-02-01T10:28:40;20.15;;;7.80;;
72109;SDS011;59983;52.010;5.420;2023-02-01T10:31:10;10.00;;;6.55;;
72109;SDS011;59983;52.010;5.420;2023-02-01T10:33:47;9.33;;;7.37;;
72109;SDS011;59983;52.010;5.420;2023-02-01T10:39:08;14.70;;;7.28;;
72109;SDS011;59983;52.010;5.420;2023-02-01T10:41:38;18.40;;;6.95;;
72109;SDS011;59983;52.010;5.420;2023-02-01T10:44:14;11.60;;;6.50;;
72109;SDS011;59983;52.010;5.420;2023-02-01T10:46:44;21.17;;;7.50;;
72109;SDS011;59983;52.010;5.420;2023-02-01T10:52:17;12.88;;;5.80;;
72109;SDS011;59983;52.010;5.420;2023-02-01T10:54:53;22.73;;;8.68;;
72109;SDS011;59983;52.010;5.420;2023-02-01T10:57:24;15.10;;;7.55;;
72109;SDS011;59983;52.010;5.420;2023-02-01T10:59:52;11.90;;;5.80;;
72109;SDS011;59983;52.010;5.420;2023-02-01T11:02:33;16.85;;;7.22;;
72109;SDS011;59983;52.010;5.420;2023-02-01T11:05:02;13.13;;;7.05;;
72109;SDS011;59983;52.010;5.420;2023-02-01T11:07:32;11.65;;;6.60;;
72109;SDS011;59983;52.010;5.420;2023-02-01T11:09:58;18.45;;;6.32;;
72109;SDS011;59983;52.010;5.420;2023-02-01T11:12:35;12.13;;;6.23;;
72109;SDS011;59983;52.010;5.420;2023-02-01T11:15:22;11.98;;;6.20;;
72109;SDS011;59983;52.010;5.420;2023-02-01T11:17:51;10.65;;;6.60;;
72109;SDS011;59983;52.010;5.420;2023-02-01T11:20:26;10.18;;;7.70;;
72109;SDS011;59983;52.010;5.420;2023-02-01T11:22:59;19.40;;;6.97;;
72109;SDS011;59983;52.010;5.420;2023-02-01T11:25:27;13.40;;;7.37;;
72109;SDS011;59983;52.010;5.420;2023-02-01T11:27:54;15.85;;;7.55;;
72109;SDS011;59983;52.010;5.420;2023-02-01T11:30:36;12.52;;;6.75;;
72109;SDS011;59983;52.010;5.420;2023-02-01T11:33:07;16.27;;;7.35;;
72109;SDS011;59983;52.010;5.420;2023-02-01T11:35:38;14.30;;;6.88;;
72109;SDS011;59983;52.010;5.420;2023-02-01T11:38:20;13.67;;;6.13;;
72109;SDS011;59983;52.010;5.420;2023-02-01T11:40:52;15.70;;;7.47;;
72109;SDS011;59983;52.010;5.420;2023-02-01T11:43:23;20.98;;;7.43;;
72109;SDS011;59983;52.010;5.420;2023-02-01T11:45:56;20.92;;;7.65;;
72109;SDS011;59983;52.010;5.420;2023-02-01T11:48:23;15.85;;;7.18;;
72109;SDS011;59983;52.010;5.420;2023-02-01T11:53:30;14.70;;;6.22;;
72109;SDS011;59983;52.010;5.420;2023-02-01T11:56:15;17.85;;;6.78;;
72109;SDS011;59983;52.010;5.420;2023-02-01T12:01:45;14.75;;;7.18;;
72109;SDS011;59983;52.010;5.420;2023-02-01T12:07:14;6.63;;;5.97;;
72109;SDS011;59983;52.010;5.420;2023-02-01T12:12:18;13.73;;;6.20;;
72109;SDS011;59983;52.010;5.420;2023-02-01T12:31:29;9.10;;;5.63;;
72109;SDS011;59983;52.010;5.420;2023-02-01T12:37:42;17.48;;;6.88;;
72109;SDS011;59983;52.010;5.420;2023-02-01T12:40:05;12.38;;;5.63;;
72109;SDS011;59983;52.010;5.420;2023-02-01T12:43:11;15.90;;;6.10;;
72109;SDS011;59983;52.010;5.420;2023-02-01T12:46:04;13.70;;;6.03;;
72109;SDS011;59983;52.010;5.420;2023-02-01T12:51:04;12.70;;;5.60;;
72109;SDS011;59983;52.010;5.420;2023-02-01T12:56:33;17.50;;;5.95;;
72109;SDS011;59983;52.010;5.420;2023-02-01T12:59:05;17.53;;;7.30;;
72109;SDS011;59983;52.010;5.420;2023-02-01T13:01:54;15.07;;;6.00;;
72109;SDS011;59983;52.010;5.420;2023-02-01T13:07:29;15.82;;;6.78;;
72109;SDS011;59983;52.010;5.420;2023-02-01T13:10:07;17.00;;;6.15;;
72109;SDS011;59983;52.010;5.420;2023-02-01T13:12:53;14.03;;;6.10;;
72109;SDS011;59983;52.010;5.420;2023-02-01T13:15:33;23.67;;;6.00;;
72109;SDS011;59983;52.010;5.420;2023-02-01T13:18:05;14.23;;;6.43;;
72109;SDS011;59983;52.010;5.420;2023-02-01T13:20:55;12.75;;;5.25;;
72109;SDS011;59983;52.010;5.420;2023-02-01T13:23:33;11.82;;;5.05;;
72109;SDS011;59983;52.010;5.420;2023-02-01T13:26:03;16.83;;;6.00;;
72109;SDS011;59983;52.010;5.420;2023-02-01T13:31:25;7.63;;;5.95;;
72109;SDS011;59983;52.010;5.420;2023-02-01T13:42:48;9.52;;;6.00;;
72109;SDS011;59983;52.010;5.420;2023-02-01T13:45:20;20.98;;;7.40;;
72109;SDS011;59983;52.010;5.420;2023-02-01T13:47:51;14.80;;;6.75;;
72109;SDS011;59983;52.010;5.420;2023-02-01T13:50:28;13.80;;;5.65;;
72109;SDS011;59983;52.010;5.420;2023-02-01T13:53:00;9.80;;;5.97;;
72109;SDS011;59983;52.010;5.420;2023-02-01T13:55:37;13.43;;;5.63;;
72109;SDS011;59983;52.010;5.420;2023-02-01T14:00:35;15.10;;;5.97;;
72109;SDS011;59983;52.010;5.420;2023-02-01T14:03:22;12.18;;;5.32;;
72109;SDS011;59983;52.010;5.420;2023-02-01T14:06:55;10.43;;;5.67;;
72109;SDS011;59983;52.010;5.420;2023-02-01T14:11:50;8.68;;;5.80;;
72109;SDS011;59983;52.010;5.420;2023-02-01T14:21:48;24.00;;;6.40;;
72109;SDS011;59983;52.010;5.420;2023-02-01T14:24:24;17.42;;;6.18;;
72109;SDS011;59983;52.010;5.420;2023-02-01T14:26:53;15.50;;;5.57;;
72109;SDS011;59983;52.010;5.420;2023-02-01T14:29:30;10.82;;;5.40;;
72109;SDS011;59983;52.010;5.420;2023-02-01T14:42:18;11.65;;;5.43;;
72109;SDS011;59983;52.010;5.420;2023-02-01T14:44:49;10.43;;;6.07;;
72109;SDS011;59983;52.010;5.420;2023-02-01T14:47:26;14.32;;;6.43;;
72109;SDS011;59983;52.010;5.420;2023-02-01T14:49:56;14.70;;;6.18;;
72109;SDS011;59983;52.010;5.420;2023-02-01T14:52:33;20.17;;;6.07;;
72109;SDS011;59983;52.010;5.420;2023-02-01T14:55:05;13.90;;;6.18;;
72109;SDS011;59983;52.010;5.420;2023-02-01T14:57:37;14.10;;;6.63;;
72109;SDS011;59983;52.010;5.420;2023-02-01T15:00:28;15.45;;;7.05;;
72109;SDS011;59983;52.010;5.420;2023-02-01T15:02:56;13.73;;;6.45;;
72109;SDS011;59983;52.010;5.420;2023-02-01T15:05:56;13.25;;;5.45;;
72109;SDS011;59983;52.010;5.420;2023-02-01T15:08:26;15.90;;;6.72;;
72109;SDS011;59983;52.010;5.420;2023-02-01T15:10:56;16.27;;;6.30;;
72109;SDS011;59983;52.010;5.420;2023-02-01T15:13:27;13.90;;;6.20;;
72109;SDS011;59983;52.010;5.420;2023-02-01T15:16:05;15.07;;;6.45;;
72109;SDS011;59983;52.010;5.420;2023-02-01T15:18:32;15.23;;;5.85;;
72109;SDS011;59983;52.010;5.420;2023-02-01T15:20:59;10.75;;;5.18;;
72109;SDS011;59983;52.010;5.420;2023-02-01T15:23:47;14.87;;;5.90;;
72109;SDS011;59983;52.010;5.420;2023-02-01T15:26:24;17.92;;;6.00;;
72109;SDS011;59983;52.010;5.420;2023-02-01T15:28:58;20.95;;;7.55;;
72109;SDS011;59983;52.010;5.420;2023-02-01T15:31:35;11.00;;;5.78;;
72109;SDS011;59983;52.010;5.420;2023-02-01T15:34:07;12.75;;;7.35;;
72109;SDS011;59983;52.010;5.420;2023-02-01T15:36:33;16.00;;;7.33;;
72109;SDS011;59983;52.010;5.420;2023-02-01T15:41:46;12.13;;;6.13;;
72109;SDS011;59983;52.010;5.420;2023-02-01T15:44:19;15.45;;;7.07;;
72109;SDS011;59983;52.010;5.420;2023-02-01T15:46:53;23.58;;;7.50;;
72109;SDS011;59983;52.010;5.420;2023-02-01T15:49:30;12.27;;;6.60;;
72109;SDS011;59983;52.010;5.420;2023-02-01T15:52:04;13.10;;;7.55;;
72109;SDS011;59983;52.010;5.420;2023-02-01T15:54:46;19.17;;;6.75;;
72109;SDS011;59983;52.010;5.420;2023-02-01T15:57:28;10.18;;;6.82;;
72109;SDS011;59983;52.010;5.420;2023-02-01T16:02:54;12.37;;;7.20;;
72109;SDS011;59983;52.010;5.420;2023-02-01T16:05:31;10.43;;;6.90;;
72109;SDS011;59983;52.010;5.420;2023-02-01T16:08:01;20.10;;;6.90;;
72109;SDS011;59983;52.010;5.420;2023-02-01T16:10:45;16.83;;;6.68;;
72109;SDS011;59983;52.010;5.420;2023-02-01T16:13:14;27.27;;;7.82;;
72109;SDS011;59983;52.010;5.420;2023-02-01T16:15:42;18.80;;;6.33;;
72109;SDS011;59983;52.010;5.420;2023-02-01T16:18:09;17.73;;;6.45;;
72109;SDS011;59983;52.010;5.420;2023-02-01T16:20:43;11.25;;;6.18;;
72109;SDS011;59983;52.010;5.420;2023-02-01T16:23:10;14.68;;;7.07;;
72109;SDS011;59983;52.010;5.420;2023-02-01T16:25:37;11.93;;;6.47;;
72109;SDS011;59983;52.010;5.420;2023-02-01T16:28:04;12.57;;;6.63;;
72109;SDS011;59983;52.010;5.420;2023-02-01T16:30:31;20.20;;;6.95;;
72109;SDS011;59983;52.010;5.420;2023-02-01T16:32:59;16.95;;;7.80;;
72109;SDS011;59983;52.010;5.420;2023-02-01T16:35:29;7.70;;;6.40;;
72109;SDS011;59983;52.010;5.420;2023-02-01T16:38:02;20.60;;;8.32;;
72109;SDS011;59983;52.010;5.420;2023-02-01T16:40:34;15.20;;;6.63;;
72109;SDS011;59983;52.010;5.420;2023-02-01T16:43:01;14.65;;;6.43;;
72109;SDS011;59983;52.010;5.420;2023-02-01T16:45:28;12.57;;;6.53;;
72109;SDS011;59983;52.010;5.420;2023-02-01T16:47:54;14.35;;;6.60;;
72109;SDS011;59983;52.010;5.420;2023-02-01T16:50:24;14.88;;;6.65;;
72109;SDS011;59983;52.010;5.420;2023-02-01T16:52:52;9.17;;;6.40;;
72109;SDS011;59983;52.010;5.420;2023-02-01T16:55:20;19.02;;;6.45;;
72109;SDS011;59983;52.010;5.420;2023-02-01T16:57:48;12.25;;;6.15;;
72109;SDS011;59983;52.010;5.420;2023-02-01T17:00:15;10.68;;;6.82;;
72109;SDS011;59983;52.010;5.420;2023-02-01T17:02:51;14.27;;;6.63;;
72109;SDS011;59983;52.010;5.420;2023-02-01T17:05:19;14.53;;;7.43;;
72109;SDS011;59983;52.010;5.420;2023-02-01T17:07:45;17.85;;;7.65;;
72109;SDS011;59983;52.010;5.420;2023-02-01T17:10:24;20.58;;;9.75;;
72109;SDS011;59983;52.010;5.420;2023-02-01T17:12:59;35.00;;;20.15;;
72109;SDS011;59983;52.010;5.420;2023-02-01T17:15:26;72.55;;;39.15;;
72109;SDS011;59983;52.010;5.420;2023-02-01T17:18:00;80.33;;;44.30;;
72109;SDS011;59983;52.010;5.420;2023-02-01T17:20:28;102.43;;;54.10;;